sensor_id;sensor_type;location;lat;lon;timestamp;P1;durP1;ratioP1;P2;durP2;ratioP2
55678;SDS011;41573;51.446;-2.018;2023-04-03T09:00:19;4.18;;;1.30;;
55678;SDS011;41573;51.446;-2.018;2023-04-03T09:02:48;6.73;;;1.47;;
55678;SDS011;41573;51.446;-2.018;2023-04-03T09:05:19;4.65;;;1.50;;
55678;SDS011;41573;51.446;-2.018;2023-04-03T09:08:16;2.55;;;1.10;;
55678;SDS011;41573;51.446;-2.018;2023-04-03T09:10:44;3.67;;;1.60;;
55678;SDS011;41573;51.446;-2.018;2023-04-03T09:13:30;2.30;;;1.35;;
55678;SDS011;41573;51.446;-2.018;2023-04-03T09:16:04;4.05;;;1.77;;
55678;SDS011;41573;51.446;-2.018;2023-04-03T09:18:45;1.63;;;1.25;;
55678;SDS011;41573;51.446;-2.018;2023-04-03T09:21:39;3.00;;;1.85;;
55678;SDS011;41573;51.446;-2.018;2023-04-03T09:24:07;4.13;;;1.45;;
55678;SDS011;41573;51.446;-2.018;2023-04-03T09:26:41;2.85;;;1.35;;
55678;SDS011;41573;51.446;-2.018;2023-04-03T09:29:13;7.38;;;1.80;;
55678;SDS011;41573;51.446;-2.018;2023-04-03T09:31:43;2.97;;;2.10;;
55678;SDS011;41573;51.446;-2.018;2023-04-03T09:34:52;2.72;;;1.80;;
55678;SDS011;41573;51.446;-2.018;2023-04-03T09:37:01;4.05;;;1.77;;
55678;SDS011;41573;51.446;-2.018;2023-04-03T09:39:33;4.07;;;1.83;;
55678;SDS011;41573;51.446;-2.018;2023-04-03T09:42:16;6.50;;;1.73;;
55678;SDS011;41573;51.446;-2.018;2023-04-03T09:44:52;7.00;;;2.08;;
55678;SDS011;41573;51.446;-2.018;2023-04-03T09:47:29;2.90;;;1.80;;
55678;SDS011;41573;51.446;-2.018;2023-04-03T09:52:40;2.45;;;1.58;;
55678;SDS011;41573;51.446;-2.018;2023-04-03T09:58:22;4.70;;;2.05;;
55678;SDS011;41573;51.446;-2.018;2023-04-03T10:00:54;4.25;;;1.50;;
55678;SDS011;41573;51.446;-2.018;2023-04-03T10:03:27;4.88;;;2.17;;
55678;SDS011;41573;51.446;-2.018;2023-04-03T10:05:55;6.78;;;2.85;;
55678;SDS011;41573;51.446;-2.018;2023-04-03T10:08:24;6.80;;;2.22;;
55678;SDS011;41573;51.446;-2.018;2023-04-03T10:13:57;4.40;;;2.25;;
55678;SDS011;41573;51.446;-2.018;2023-04-03T10:16:38;3.67;;;2.33;;
55678;SDS011;41573;51.446;-2.018;2023-04-03T10:21:58;5.82;;;1.80;;
55678;SDS011;41573;51.446;-2.018;2023-04-03T10:30:09;4.43;;;1.92;;
55678;SDS011;41573;51.446;-2.018;2023-04-03T10:32:44;6.20;;;2.05;;
55678;SDS011;41573;51.446;-2.018;2023-04-03T10:35:27;6.22;;;2.08;;
55678;SDS011;41573;51.446;-2.018;2023-04-03T10:38:12;4.82;;;2.45;;
55678;SDS011;41573;51.446;-2.018;2023-04-03T10:41:00;5.03;;;1.83;;
55678;SDS011;41573;51.446;-2.018;2023-04-03T10:43:42;3.35;;;1.70;;
55678;SDS011;41573;51.446;-2.018;2023-04-03T10:46:18;5.30;;;2.28;;
55678;SDS011;41573;51.446;-2.018;2023-04-03T10:51:57;3.53;;;2.08;;
55678;SDS011;41573;51.446;-2.018;2023-04-03T10:55:17;3.97;;;1.80;;
55678;SDS011;41573;51.446;-2.018;2023-04-03T10:57:18;7.85;;;2.15;;
55678;SDS011;41573;51.446;-2.018;2023-04-03T10:59:45;3.83;;;1.77;;
55678;SDS011;41573;51.446;-2.018;2023-04-03T11:02:28;5.35;;;1.95;;
55678;SDS011;41573;51.446;-2.018;2023-04-03T11:05:02;4.80;;;2.05;;
55678;SDS011;41573;51.446;-2.018;2023-04-03T11:07:40;3.65;;;2.25;;
55678;SDS011;41573;51.446;-2.018;2023-04-03T11:10:13;3.08;;;2.17;;
55678;SDS011;41573;51.446;-2.018;2023-04-03T11:12:46;4.30;;;1.95;;
55678;SDS011;41573;51.446;-2.018;2023-04-03T11:15:16;3.60;;;1.77;;
55678;SDS011;41573;51.446;-2.018;2023-04-03T11:17:53;3.33;;;1.92;;
55678;SDS011;41573;51.446;-2.018;2023-04-03T11:20:30;7.30;;;2.45;;
55678;SDS011;41573;51.446;-2.018;2023-04-03T11:25:29;4.03;;;2.10;;
55678;SDS011;41573;51.446;-2.018;2023-04-03T11:38:57;7.07;;;1.92;;
55678;SDS011;41573;51.446;-2.018;2023-04-03T11:41:28;2.42;;;1.70;;
55678;SDS011;41573;51.446;-2.018;2023-04-03T12:13:42;7.22;;;2.45;;
55678;SDS011;41573;51.446;-2.018;2023-04-03T12:16:23;4.15;;;2.15;;
55678;SDS011;41573;51.446;-2.018;2023-04-03T12:26:24;4.95;;;2.42;;
55678;SDS011;41573;51.446;-2.018;2023-04-03T12:28:52;3.40;;;1.73;;
55678;SDS011;41573;51.446;-2.018;2023-04-03T12:31:18;4.00;;;1.75;;
55678;SDS011;41573;51.446;-2.018;2023-04-03T12:44:58;8.00;;;2.60;;
55678;SDS011;41573;51.446;-2.018;2023-04-03T12:47:31;3.40;;;2.05;;
55678;SDS011;41573;51.446;-2.018;2023-04-03T12:50:01;3.60;;;2.08;;
55678;SDS011;41573;51.446;-2.018;2023-04-03T12:54:58;3.40;;;2.00;;
55678;SDS011;41573;51.446;-2.018;2023-04-03T12:57:29;3.65;;;2.45;;
55678;SDS011;41573;51.446;-2.018;2023-04-03T12:59:55;4.30;;;2.30;;
55678;SDS011;41573;51.446;-2.018;2023-04-03T13:04:59;3.42;;;1.70;;
55678;SDS011;41573;51.446;-2.018;2023-04-03T13:07:31;3.88;;;2.38;;
55678;SDS011;41573;51.446;-2.018;2023-04-03T13:10:04;5.07;;;2.15;;
55678;SDS011;41573;51.446;-2.018;2023-04-03T13:12:48;3.45;;;1.95;;
55678;SDS011;41573;51.446;-2.018;2023-04-03T13:15:19;6.38;;;2.20;;
55678;SDS011;41573;51.446;-2.018;2023-04-03T13:17:48;3.97;;;2.25;;
55678;SDS011;41573;51.446;-2.018;2023-04-03T13:20:36;6.18;;;2.38;;
55678;SDS011;41573;51.446;-2.018;2023-04-03T13:23:08;3.95;;;2.38;;
55678;SDS011;41573;51.446;-2.018;2023-04-03T13:25:40;10.85;;;3.88;;
55678;SDS011;41573;51.446;-2.018;2023-04-03T13:28:13;4.38;;;2.45;;
55678;SDS011;41573;51.446;-2.018;2023-04-03T13:33:31;7.72;;;2.30;;
55678;SDS011;41573;51.446;-2.018;2023-04-03T13:36:04;3.63;;;2.38;;
55678;SDS011;41573;51.446;-2.018;2023-04-03T13:38:32;4.30;;;2.22;;
55678;SDS011;41573;51.446;-2.018;2023-04-03T13:41:00;3.63;;;1.90;;
55678;SDS011;41573;51.446;-2.018;2023-04-03T13:43:31;3.42;;;2.40;;
55678;SDS011;41573;51.446;-2.018;2023-04-03T13:48:36;3.50;;;2.28;;
55678;SDS011;41573;51.446;-2.018;2023-04-03T13:51:03;5.85;;;3.40;;
55678;SDS011;41573;51.446;-2.018;2023-04-03T13:58:30;4.40;;;2.28;;
55678;SDS011;41573;51.446;-2.018;2023-04-03T14:03:46;7.03;;;2.88;;
55678;SDS011;41573;51.446;-2.018;2023-04-03T14:06:17;5.30;;;2.40;;
55678;SDS011;41573;51.446;-2.018;2023-04-03T14:08:44;6.55;;;2.60;;
55678;SDS011;41573;51.446;-2.018;2023-04-03T14:11:18;5.35;;;2.50;;
55678;SDS011;41573;51.446;-2.018;2023-04-03T14:13:46;7.72;;;2.70;;
55678;SDS011;41573;51.446;-2.018;2023-04-03T14:16:14;9.13;;;3.20;;
55678;SDS011;41573;51.446;-2.018;2023-04-03T14:18:42;5.65;;;2.70;;
55678;SDS011;41573;51.446;-2.018;2023-04-03T14:21:10;7.88;;;2.90;;
55678;SDS011;41573;51.446;-2.018;2023-04-03T14:23:37;3.63;;;2.22;;
55678;SDS011;41573;51.446;-2.018;2023-04-03T14:26:04;5.22;;;2.92;;
55678;SDS011;41573;51.446;-2.018;2023-04-03T14:28:35;7.93;;;3.00;;
55678;SDS011;41573;51.446;-2.018;2023-04-03T14:31:01;5.97;;;3.05;;
55678;SDS011;41573;51.446;-2.018;2023-04-03T14:33:26;6.93;;;2.83;;
55678;SDS011;41573;51.446;-2.018;2023-04-03T14:35:54;3.65;;;2.25;;
55678;SDS011;41573;51.446;-2.018;2023-04-03T14:38:29;4.05;;;2.20;;
55678;SDS011;41573;51.446;-2.018;2023-04-03T14:40:55;6.50;;;2.60;;
55678;SDS011;41573;51.446;-2.018;2023-04-03T14:43:22;4.40;;;2.45;;
55678;SDS011;41573;51.446;-2.018;2023-04-03T14:45:48;3.50;;;2.08;;
55678;SDS011;41573;51.446;-2.018;2023-04-03T14:48:17;4.97;;;2.65;;
55678;SDS011;41573;51.446;-2.018;2023-04-03T14:50:48;5.05;;;2.58;;
55678;SDS011;41573;51.446;-2.018;2023-04-03T14:53:15;4.90;;;2.55;;
55678;SDS011;41573;51.446;-2.018;2023-04-03T14:55:45;6.50;;;2.40;;
55678;SDS011;41573;51.446;-2.018;2023-04-03T14:58:12;5.13;;;2.10;;
55678;SDS011;41573;51.446;-2.018;2023-04-03T15:00:39;3.72;;;2.30;;
55678;SDS011;41573;51.446;-2.018;2023-04-03T15:03:05;3.28;;;2.40;;
55678;SDS011;41573;51.446;-2.018;2023-04-03T15:05:30;6.18;;;2.50;;
55678;SDS011;41573;51.446;-2.018;2023-04-03T15:07:56;4.45;;;2.60;;
55678;SDS011;41573;51.446;-2.018;2023-04-03T15:10:24;4.15;;;2.60;;
55678;SDS011;41573;51.446;-2.018;2023-04-03T15:12:54;3.65;;;2.58;;
55678;SDS011;41573;51.446;-2.018;2023-04-03T15:15:21;3.63;;;2.25;;
55678;SDS011;41573;51.446;-2.018;2023-04-03T15:17:50;4.50;;;2.30;;
55678;SDS011;41573;51.446;-2.018;2023-04-03T15:20:19;7.18;;;2.83;;
55678;SDS011;41573;51.446;-2.018;2023-04-03T15:22:47;3.20;;;2.03;;
55678;SDS011;41573;51.446;-2.018;2023-04-03T15:25:13;3.67;;;2.53;;
55678;SDS011;41573;51.446;-2.018;2023-04-03T15:27:38;5.22;;;2.45;;
55678;SDS011;41573;51.446;-2.018;2023-04-03T15:30:05;8.15;;;2.92;;
55678;SDS011;41573;51.446;-2.018;2023-04-03T15:32:32;3.83;;;2.30;;
55678;SDS011;41573;51.446;-2.018;2023-04-03T15:34:59;4.45;;;2.20;;
55678;SDS011;41573;51.446;-2.018;2023-04-03T15:37:25;4.63;;;2.70;;
55678;SDS011;41573;51.446;-2.018;2023-04-03T15:39:50;4.22;;;2.47;;
55678;SDS011;41573;51.446;-2.018;2023-04-03T15:42:15;3.13;;;2.30;;
55678;SDS011;41573;51.446;-2.018;2023-04-03T15:44:41;5.05;;;2.20;;
55678;SDS011;41573;51.446;-2.018;2023-04-03T15:47:06;6.10;;;2.17;;
55678;SDS011;41573;51.446;-2.018;2023-04-03T15:49:32;4.60;;;2.42;;
55678;SDS011;41573;51.446;-2.018;2023-04-03T15:51:58;3.35;;;2.35;;
55678;SDS011;41573;51.446;-2.018;2023-04-03T15:54:24;5.47;;;2.40;;
55678;SDS011;41573;51.446;-2.018;2023-04-03T15:56:50;3.72;;;2.33;;
55678;SDS011;41573;51.446;-2.018;2023-04-03T15:59:16;2.63;;;1.60;;
55678;SDS011;41573;51.446;-2.018;2023-04-03T16:01:42;5.70;;;2.10;;
55678;SDS011;41573;51.446;-2.018;2023-04-03T16:04:08;4.13;;;2.40;;
55678;SDS011;41573;51.446;-2.018;2023-04-03T16:06:35;7.10;;;2.30;;
55678;SDS011;41573;51.446;-2.018;2023-04-03T16:09:01;3.58;;;1.80;;
55678;SDS011;41573;51.446;-2.018;2023-04-03T16:11:27;2.40;;;1.63;;
55678;SDS011;41573;51.446;-2.018;2023-04-03T16:13:53;3.20;;;2.00;;
55678;SDS011;41573;51.446;-2.018;2023-04-03T16:16:19;4.82;;;2.00;;
55678;SDS011;41573;51.446;-2.018;2023-04-03T16:18:45;4.50;;;1.95;;
55678;SDS011;41573;51.446;-2.018;2023-04-03T16:21:11;2.35;;;1.60;;
55678;SDS011;41573;51.446;-2.018;2023-04-03T16:23:39;5.57;;;1.95;;
55678;SDS011;41573;51.446;-2.018;2023-04-03T16:26:05;4.45;;;2.10;;
55678;SDS011;41573;51.446;-2.018;2023-04-03T16:28:31;5.13;;;1.92;;
55678;SDS011;41573;51.446;-2.018;2023-04-03T16:30:57;4.28;;;1.83;;
55678;SDS011;41573;51.446;-2.018;2023-04-03T16:33:22;4.10;;;2.00;;
55678;SDS011;41573;51.446;-2.018;2023-04-03T16:35:49;3.28;;;2.10;;
55678;SDS011;41573;51.446;-2.018;2023-04-03T16:38:15;4.25;;;1.90;;
55678;SDS011;41573;51.446;-2.018;2023-04-03T16:40:41;3.40;;;2.65;;
55678;SDS011;41573;51.446;-2.018;2023-04-03T16:43:06;5.72;;;2.00;;
55678;SDS011;41573;51.446;-2.018;2023-04-03T16:45:32;3.28;;;1.70;;
55678;SDS011;41573;51.446;-2.018;2023-04-03T16:47:57;2.63;;;1.98;;
55678;SDS011;41573;51.446;-2.018;2023-04-03T16:50:23;4.43;;;2.00;;
55678;SDS011;41573;51.446;-2.018;2023-04-03T16:52:48;4.90;;;1.90;;
55678;SDS011;41573;51.446;-2.018;2023-04-03T16:55:14;6.75;;;2.33;;
55678;SDS011;41573;51.446;-2.018;2023-04-03T16:57:39;3.78;;;1.80;;
55678;SDS011;41573;51.446;-2.018;2023-04-03T17:00:05;5.70;;;1.65;;
55678;SDS011;41573;51.446;-2.018;2023-04-03T17:02:31;4.13;;;1.77;;
55678;SDS011;41573;51.446;-2.018;2023-04-03T17:04:56;3.50;;;1.63;;
55678;SDS011;41573;51.446;-2.018;2023-04-03T17:07:22;3.22;;;1.92;;
55678;SDS011;41573;51.446;-2.018;2023-04-03T17:09:49;4.20;;;1.73;;
55678;SDS011;41573;51.446;-2.018;2023-04-03T17:12:15;7.60;;;1.90;;
55678;SDS011;41573;51.446;-2.018;2023-04-03T17:14:41;4.00;;;2.00;;
55678;SDS011;41573;51.446;-2.018;2023-04-03T17:17:07;7.72;;;1.70;;
55678;SDS011;41573;51.446;-2.018;2023-04-03T17:19:33;3.30;;;1.70;;
55678;SDS011;41573;51.446;-2.018;2023-04-03T17:21:59;6.13;;;2.00;;
55678;SDS011;41573;51.446;-2.018;2023-04-03T17:24:25;2.50;;;1.75;;
55678;SDS011;41573;51.446;-2.018;2023-04-03T17:26:51;4.32;;;1.75;;
55678;SDS011;41573;51.446;-2.018;2023-04-03T17:29:17;2.85;;;1.73;;
55678;SDS011;41573;51.446;-2.018;2023-04-03T17:31:42;4.03;;;1.65;;
55678;SDS011;41573;51.446;-2.018;2023-04-03T17:34:07;3.30;;;1.90;;
55678;SDS011;41573;51.446;-2.018;2023-04-03T17:36:37;4.95;;;2.00;;
55678;SDS011;41573;51.446;-2.018;2023-04-03T17:39:04;2.72;;;1.83;;
55678;SDS011;41573;51.446;-2.018;2023-04-03T17:41:30;2.85;;;1.77;;
55678;SDS011;41573;51.446;-2.018;2023-04-03T17:43:56;4.57;;;2.10;;
55678;SDS011;41573;51.446;-2.018;2023-04-03T17:46:22;4.07;;;1.80;;
55678;SDS011;41573;51.446;-2.018;2023-04-03T17:48:48;3.60;;;1.70;;
55678;SDS011;41573;51.446;-2.018;2023-04-03T17:51:15;2.15;;;1.50;;
55678;SDS011;41573;51.446;-2.018;2023-04-03T17:53:42;5.10;;;2.28;;
55678;SDS011;41573;51.446;-2.018;2023-04-03T17:56:12;4.05;;;1.55;;
55678;SDS011;41573;51.446;-2.018;2023-04-03T17:58:39;4.60;;;1.58;;
55678;SDS011;41573;51.446;-2.018;2023-04-03T18:01:07;2.00;;;1.23;;
55678;SDS011;41573;51.446;-2.018;2023-04-03T18:03:37;2.28;;;1.55;;
55678;SDS011;41573;51.446;-2.018;2023-04-03T18:06:03;3.17;;;1.60;;
55678;SDS011;41573;51.446;-2.018;2023-04-03T18:08:32;2.45;;;1.52;;
55678;SDS011;41573;51.446;-2.018;2023-04-03T18:11:00;1.92;;;1.17;;
55678;SDS011;41573;51.446;-2.018;2023-04-03T18:13:25;3.97;;;1.67;;
55678;SDS011;41573;51.446;-2.018;2023-04-03T18:15:51;4.28;;;1.77;;
55678;SDS011;41573;51.446;-2.018;2023-04-03T18:18:16;3.03;;;1.55;;
55678;SDS011;41573;51.446;-2.018;2023-04-03T18:20:42;3.67;;;1.48;;
55678;SDS011;41573;51.446;-2.018;2023-04-03T18:23:07;2.63;;;1.55;;
55678;SDS011;41573;51.446;-2.018;2023-04-03T18:25:33;3.40;;;1.50;;
55678;SDS011;41573;51.446;-2.018;2023-04-03T18:27:58;5.47;;;1.63;;
55678;SDS011;41573;51.446;-2.018;2023-04-03T18:30:30;3.40;;;1.75;;
55678;SDS011;41573;51.446;-2.018;2023-04-03T18:32:56;5.00;;;1.70;;
55678;SDS011;41573;51.446;-2.018;2023-04-03T18:35:21;2.65;;;1.50;;
55678;SDS011;41573;51.446;-2.018;2023-04-03T18:37:47;3.00;;;1.48;;
55678;SDS011;41573;51.446;-2.018;2023-04-03T18:40:12;3.67;;;1.77;;
55678;SDS011;41573;51.446;-2.018;2023-04-03T18:42:38;3.40;;;1.75;;
55678;SDS011;41573;51.446;-2.018;2023-04-03T18:45:05;4.18;;;2.13;;
55678;SDS011;41573;51.446;-2.018;2023-04-03T18:47:31;2.25;;;1.48;;
55678;SDS011;41573;51.446;-2.018;2023-04-03T18:49:56;3.80;;;1.65;;
55678;SDS011;41573;51.446;-2.018;2023-04-03T18:52:22;4.88;;;2.25;;
55678;SDS011;41573;51.446;-2.018;2023-04-03T18:54:49;3.83;;;2.22;;
55678;SDS011;41573;51.446;-2.018;2023-04-03T18:57:15;3.45;;;2.10;;
55678;SDS011;41573;51.446;-2.018;2023-04-03T18:59:41;3.75;;;2.13;;
55678;SDS011;41573;51.446;-2.018;2023-04-03T19:02:06;3.30;;;1.50;;
55678;SDS011;41573;51.446;-2.018;2023-04-03T19:04:33;3.42;;;1.95;;
55678;SDS011;41573;51.446;-2.018;2023-04-03T19:07:00;2.45;;;1.50;;
55678;SDS011;41573;51.446;-2.018;2023-04-03T19:09:29;2.30;;;1.50;;
55678;SDS011;41573;51.446;-2.018;2023-04-03T19:11:56;1.88;;;1.05;;
55678;SDS011;41573;51.446;-2.018;2023-04-03T19:14:21;1.73;;;1.23;;
55678;SDS011;41573;51.446;-2.018;2023-04-03T19:16:47;2.70;;;1.50;;
55678;SDS011;41573;51.446;-2.018;2023-04-03T19:19:12;3.72;;;1.70;;
55678;SDS011;41573;51.446;-2.018;2023-04-03T19:21:38;4.70;;;1.77;;
55678;SDS011;41573;51.446;-2.018;2023-04-03T19:24:05;3.60;;;1.80;;
55678;SDS011;41573;51.446;-2.018;2023-04-03T19:26:32;4.18;;;1.80;;
55678;SDS011;41573;51.446;-2.018;2023-04-03T19:28:57;3.45;;;1.85;;
55678;SDS011;41573;51.446;-2.018;2023-04-03T19:31:23;2.90;;;1.70;;
55678;SDS011;41573;51.446;-2.018;2023-04-03T19:33:48;4.28;;;1.98;;
55678;SDS011;41573;51.446;-2.018;2023-04-03T19:36:15;4.00;;;2.00;;
55678;SDS011;41573;51.446;-2.018;2023-04-03T19:38:41;3.47;;;1.88;;
55678;SDS011;41573;51.446;-2.018;2023-04-03T19:41:13;8.65;;;1.85;;
55678;SDS011;41573;51.446;-2.018;2023-04-03T19:43:41;2.22;;;1.75;;
55678;SDS011;41573;51.446;-2.018;2023-04-03T19:46:07;5.70;;;1.73;;
55678;SDS011;41573;51.446;-2.018;2023-04-03T19:48:33;2.83;;;1.80;;
55678;SDS011;41573;51.446;-2.018;2023-04-03T19:50:58;4.40;;;2.00;;
55678;SDS011;41573;51.446;-2.018;2023-04-03T19:53:24;2.53;;;1.60;;
55678;SDS011;41573;51.446;-2.018;2023-04-03T19:55:53;2.60;;;1.83;;
55678;SDS011;41573;51.446;-2.018;2023-04-03T19:58:20;3.95;;;1.65;;
55678;SDS011;41573;51.446;-2.018;2023-04-03T20:00:46;2.97;;;1.67;;
55678;SDS011;41573;51.446;-2.018;2023-04-03T20:03:11;3.60;;;1.70;;
55678;SDS011;41573;51.446;-2.018;2023-04-03T20:05:37;3.83;;;1.77;;
55678;SDS011;41573;51.446;-2.018;2023-04-03T20:08:02;4.38;;;2.08;;
55678;SDS011;41573;51.446;-2.018;2023-04-03T20:10:28;3.75;;;2.03;;
55678;SDS011;41573;51.446;-2.018;2023-04-03T20:12:54;5.20;;;2.47;;
55678;SDS011;41573;51.446;-2.018;2023-04-03T20:15:20;5.82;;;2.35;;
55678;SDS011;41573;51.446;-2.018;2023-04-03T20:17:46;4.10;;;2.25;;
55678;SDS011;41573;51.446;-2.018;2023-04-03T20:20:11;5.38;;;2.17;;
55678;SDS011;41573;51.446;-2.018;2023-04-03T20:22:37;4.50;;;2.13;;
55678;SDS011;41573;51.446;-2.018;2023-04-03T20:25:05;3.45;;;1.77;;
55678;SDS011;41573;51.446;-2.018;2023-04-03T20:27:33;2.10;;;1.42;;
55678;SDS011;41573;51.446;-2.018;2023-04-03T20:29:59;3.67;;;1.80;;
55678;SDS011;41573;51.446;-2.018;2023-04-03T20:32:24;2.88;;;1.63;;
55678;SDS011;41573;51.446;-2.018;2023-04-03T20:34:51;2.53;;;1.60;;
55678;SDS011;41573;51.446;-2.018;2023-04-03T20:37:18;5.60;;;1.88;;
55678;SDS011;41573;51.446;-2.018;2023-04-03T20:39:46;3.88;;;1.80;;
55678;SDS011;41573;51.446;-2.018;2023-04-03T20:42:12;5.22;;;1.77;;
55678;SDS011;41573;51.446;-2.018;2023-04-03T20:44:39;3.47;;;1.90;;
55678;SDS011;41573;51.446;-2.018;2023-04-03T20:47:04;3.72;;;1.90;;
55678;SDS011;41573;51.446;-2.018;2023-04-03T20:49:30;3.58;;;1.80;;
55678;SDS011;41573;51.446;-2.018;2023-04-03T20:51:56;2.78;;;1.63;;
55678;SDS011;41573;51.446;-2.018;2023-04-03T20:54:21;4.10;;;1.95;;
55678;SDS011;41573;51.446;-2.018;2023-04-03T20:56:47;7.55;;;2.47;;
55678;SDS011;41573;51.446;-2.018;2023-04-03T20:59:14;3.72;;;1.77;;
55678;SDS011;41573;51.446;-2.018;2023-04-03T21:01:41;4.07;;;1.90;;
55678;SDS011;41573;51.446;-2.018;2023-04-03T21:04:12;3.92;;;1.90;;
55678;SDS011;41573;51.446;-2.018;2023-04-03T21:20:57;4.17;;;2.13;;
55678;SDS011;41573;51.446;-2.018;2023-04-03T21:23:25;4.40;;;2.10;;
55678;SDS011;41573;51.446;-2.018;2023-04-03T21:26:02;2.78;;;1.92;;
55678;SDS011;41573;51.446;-2.018;2023-04-03T21:28:49;6.70;;;1.98;;
55678;SDS011;41573;51.446;-2.018;2023-04-03T21:31:16;4.50;;;1.63;;
55678;SDS011;41573;51.446;-2.018;2023-04-03T21:33:46;3.63;;;1.65;;
55678;SDS011;41573;51.446;-2.018;2023-04-03T21:36:11;3.17;;;1.90;;
55678;SDS011;41573;51.446;-2.018;2023-04-03T21:38:40;2.53;;;1.52;;
55678;SDS011;41573;51.446;-2.018;2023-04-03T21:41:13;5.68;;;1.63;;
55678;SDS011;41573;51.446;-2.018;2023-04-03T21:43:45;2.40;;;1.60;;
55678;SDS011;41573;51.446;-2.018;2023-04-03T21:46:11;2.25;;;1.48;;
55678;SDS011;41573;51.446;-2.018;2023-04-03T21:48:36;1.67;;;1.20;;
55678;SDS011;41573;51.446;-2.018;2023-04-03T21:51:11;3.67;;;1.50;;
55678;SDS011;41573;51.446;-2.018;2023-04-03T21:53:41;3.10;;;1.52;;
55678;SDS011;41573;51.446;-2.018;2023-04-03T21:56:08;2.83;;;1.27;;
55678;SDS011;41573;51.446;-2.018;2023-04-03T21:58:37;3.50;;;1.20;;
55678;SDS011;41573;51.446;-2.018;2023-04-03T22:01:08;2.40;;;1.25;;
55678;SDS011;41573;51.446;-2.018;2023-04-03T22:03:36;2.95;;;1.45;;
55678;SDS011;41573;51.446;-2.018;2023-04-03T22:06:02;3.78;;;1.33;;
55678;SDS011;41573;51.446;-2.018;2023-04-03T22:08:33;2.85;;;1.60;;
55678;SDS011;41573;51.446;-2.018;2023-04-03T22:11:02;1.95;;;1.20;;
55678;SDS011;41573;51.446;-2.018;2023-04-03T22:13:29;3.60;;;1.92;;
55678;SDS011;41573;51.446;-2.018;2023-04-03T22:16:02;2.10;;;1.20;;
55678;SDS011;41573;51.446;-2.018;2023-04-03T23:12:46;1.30;;;0.95;;
55678;SDS011;41573;51.446;-2.018;2023-04-03T23:15:15;2.35;;;1.10;;
55678;SDS011;41573;51.446;-2.018;2023-04-03T23:17:43;2.53;;;1.02;;
55678;SDS011;41573;51.446;-2.018;2023-04-03T23:20:11;2.67;;;1.20;;
55678;SDS011;41573;51.446;-2.018;2023-04-03T23:22:36;2.00;;;1.20;;
55678;SDS011;41573;51.446;-2.018;2023-04-03T23:25:02;4.55;;;1.13;;
55678;SDS011;41573;51.446;-2.018;2023-04-03T23:27:28;1.50;;;1.00;;
55678;SDS011;41573;51.446;-2.018;2023-04-03T23:29:56;3.75;;;1.30;;
55678;SDS011;41573;51.446;-2.018;2023-04-03T23:32:22;5.20;;;1.17;;
55678;SDS011;41573;51.446;-2.018;2023-04-03T23:34:47;2.50;;;1.15;;
55678;SDS011;41573;51.446;-2.018;2023-04-03T23:37:12;2.78;;;1.17;;
55678;SDS011;41573;51.446;-2.018;2023-04-03T23:39:38;7.88;;;2.05;;
55678;SDS011;41573;51.446;-2.018;2023-04-03T23:42:04;3.15;;;1.30;;
55678;SDS011;41573;51.446;-2.018;2023-04-03T23:44:33;5.28;;;1.20;;
55678;SDS011;41573;51.446;-2.018;2023-04-03T23:46:58;3.80;;;1.17;;
55678;SDS011;41573;51.446;-2.018;2023-04-03T23:49:24;1.58;;;1.20;;
55678;SDS011;41573;51.446;-2.018;2023-04-03T23:51:49;2.58;;;1.77;;
55678;SDS011;41573;51.446;-2.018;2023-04-03T23:54:16;4.63;;;1.33;;
55678;SDS011;41573;51.446;-2.018;2023-04-03T23:56:41;1.40;;;1.02;;
55678;SDS011;41573;51.446;-2.018;2023-04-03T23:59:06;2.45;;;1.30;;
